createdAt,value
2022-08-18T00:01:00.308Z,11.23
2022-08-18T00:03:56.989Z,8.13
2022-08-18T00:06:50.603Z,8.07
2022-08-18T00:09:39.560Z,14.50
2022-08-18T00:12:40.600Z,8.63
2022-08-18T00:15:28.641Z,17.97
2022-08-18T00:18:16.635Z,10.07
2022-08-18T00:21:04.476Z,9.73
2022-08-18T00:23:51.965Z,10.90
2022-08-18T00:26:39.500Z,11.70
2022-08-18T00:29:28.392Z,10.97
2022-08-18T00:32:19.660Z,9.23
2022-08-18T00:35:13.771Z,10.57
2022-08-18T00:38:02.726Z,11.37
2022-08-18T00:40:54.667Z,9.07
2022-08-18T00:43:49.007Z,10.00
2022-08-18T00:46:37.966Z,13.23
2022-08-18T00:49:25.463Z,8.80
2022-08-18T00:52:15.190Z,12.53
2022-08-18T00:55:04.064Z,12.90
2022-08-18T00:57:54.404Z,10.53
2022-08-18T01:00:42.592Z,8.67
2022-08-18T01:03:33.618Z,8.13
2022-08-18T01:06:36.802Z,10.47
2022-08-18T01:09:24.885Z,8.37
2022-08-18T01:12:44.876Z,7.43
2022-08-18T01:15:27.756Z,11.67
2022-08-18T01:18:35.682Z,6.93
2022-08-18T01:21:47.759Z,9.17
2022-08-18T01:24:56.761Z,9.30
2022-08-18T01:27:44.674Z,10.10
2022-08-18T01:30:44.068Z,10.67
2022-08-18T01:33:38.660Z,8.13
2022-08-18T01:36:26.304Z,8.25
2022-08-18T01:39:13.975Z,9.20
2022-08-18T01:42:03.626Z,8.03
2022-08-18T01:44:53.904Z,7.63
2022-08-18T01:47:47.762Z,7.40
2022-08-18T01:50:37.597Z,10.67
2022-08-18T01:53:25.117Z,8.27
2022-08-18T01:56:17.662Z,7.60
2022-08-18T01:59:06.531Z,11.83
2022-08-18T02:01:56.337Z,10.60
2022-08-18T02:04:45.132Z,6.93
2022-08-18T02:07:36.009Z,7.97
2022-08-18T02:10:24.215Z,11.43
2022-08-18T02:13:11.940Z,11.70
2022-08-18T02:15:59.898Z,8.67
2022-08-18T02:18:48.883Z,8.13
2022-08-18T02:21:36.529Z,12.40
2022-08-18T02:24:35.041Z,10.23
2022-08-18T02:27:22.541Z,9.53
2022-08-18T02:30:13.645Z,9.70
2022-08-18T02:33:01.779Z,9.97
2022-08-18T02:35:55.432Z,13.77
2022-08-18T02:38:43.427Z,8.10
2022-08-18T02:41:31.495Z,9.23
2022-08-18T02:44:19.382Z,17.37
2022-08-18T02:47:07.025Z,12.27
2022-08-18T02:49:54.479Z,10.47
2022-08-18T02:52:42.045Z,9.97
2022-08-18T02:55:29.559Z,12.27
2022-08-18T02:58:17.125Z,12.97
2022-08-18T03:01:04.291Z,11.63
2022-08-18T03:03:52.561Z,11.80
2022-08-18T03:06:40.282Z,16.53
2022-08-18T03:09:29.705Z,14.87
2022-08-18T03:12:17.863Z,12.83
2022-08-18T03:15:05.526Z,10.57
2022-08-18T03:17:53.174Z,14.00
2022-08-18T03:20:44.056Z,11.97
2022-08-18T03:23:31.651Z,12.37
2022-08-18T03:26:21.010Z,10.57
2022-08-18T03:29:09.000Z,11.63
2022-08-18T03:31:56.503Z,15.77
2022-08-18T03:34:43.944Z,14.57
2022-08-18T03:37:32.487Z,9.40
2022-08-18T03:40:20.411Z,8.90
2022-08-18T03:43:25.861Z,16.10
2022-08-18T03:46:19.657Z,9.43
2022-08-18T03:49:25.152Z,11.47
2022-08-18T03:52:12.768Z,10.10
2022-08-18T03:55:00.706Z,9.93
2022-08-18T03:57:56.688Z,8.60
2022-08-18T04:00:44.137Z,11.80
2022-08-18T04:03:32.897Z,11.53
2022-08-18T04:06:51.922Z,12.67
2022-08-18T04:13:36.469Z,9.13
2022-08-18T04:16:27.526Z,10.37
2022-08-18T04:19:26.298Z,12.43
2022-08-18T04:22:41.601Z,11.17
2022-08-18T04:25:59.374Z,13.70
2022-08-18T04:28:57.332Z,9.82
2022-08-18T04:31:44.979Z,14.17
2022-08-18T04:34:33.493Z,12.73
2022-08-18T04:37:20.982Z,10.87
2022-08-18T04:40:15.295Z,9.17
2022-08-18T04:43:02.539Z,13.40
2022-08-18T04:45:51.067Z,11.50
2022-08-18T04:48:47.676Z,9.53
2022-08-18T04:52:36.588Z,12.97
2022-08-18T04:55:29.148Z,11.30
2022-08-18T04:58:18.778Z,12.40
2022-08-18T05:01:06.185Z,11.47
2022-08-18T05:37:35.704Z,11.50
2022-08-18T05:40:28.738Z,7.17
2022-08-18T05:43:17.075Z,8.57
2022-08-18T05:46:06.868Z,8.27
2022-08-18T05:48:54.349Z,6.90
2022-08-18T05:51:54.419Z,9.47
2022-08-18T05:55:20.416Z,9.70
2022-08-18T05:58:21.671Z,7.97
2022-08-18T06:01:39.394Z,8.55
2022-08-18T06:04:32.944Z,12.23
2022-08-18T06:07:53.685Z,12.60
2022-08-18T06:10:47.367Z,6.60
2022-08-18T06:13:44.056Z,10.03
2022-08-18T06:16:44.477Z,9.50
2022-08-18T06:20:45.557Z,9.27
2022-08-18T06:24:11.555Z,7.97
2022-08-18T06:28:28.580Z,10.47
2022-08-18T06:34:51.250Z,9.67
2022-08-18T06:45:26.355Z,8.17
2022-08-18T06:48:36.643Z,10.77
2022-08-18T06:58:27.511Z,10.23
2022-08-18T07:04:53.029Z,10.03
2022-08-18T07:07:42.493Z,7.53
2022-08-18T07:10:36.910Z,6.93
2022-08-18T07:13:30.083Z,5.75
2022-08-18T07:16:57.368Z,5.60
2022-08-18T07:19:42.592Z,8.13
2022-08-18T07:22:39.024Z,8.27
2022-08-18T07:25:44.441Z,9.00
2022-08-18T07:28:48.157Z,8.82
2022-08-18T07:32:02.972Z,7.18
2022-08-18T07:34:58.371Z,7.40
2022-08-18T07:37:53.564Z,8.10
2022-08-18T07:43:57.756Z,5.78
2022-08-18T07:56:30.059Z,5.25
2022-08-18T07:59:35.496Z,5.15
2022-08-18T08:02:58.558Z,4.95
2022-08-18T08:09:51.792Z,7.93
2022-08-18T08:16:59.179Z,4.85
2022-08-18T08:25:45.365Z,5.53
2022-08-18T08:29:39.248Z,5.45
2022-08-18T08:37:22.583Z,5.55
2022-08-18T08:40:44.589Z,3.42
2022-08-18T08:43:42.512Z,5.72
2022-08-18T08:46:36.420Z,4.82
2022-08-18T08:50:00.727Z,5.65
2022-08-18T08:56:36.743Z,3.50
2022-08-18T08:59:29.413Z,3.88
2022-08-18T09:02:46.745Z,3.00
2022-08-18T09:05:56.754Z,4.65
2022-08-18T09:09:16.123Z,2.22
2022-08-18T09:12:41.278Z,3.10
2022-08-18T09:16:01.236Z,5.10
2022-08-18T09:19:27.993Z,3.78
2022-08-18T09:22:29.786Z,5.38
2022-08-18T09:25:33.658Z,4.32
2022-08-18T09:28:42.207Z,4.53
2022-08-18T09:34:51.835Z,2.53
2022-08-18T09:37:42.507Z,2.40
2022-08-18T09:41:03.740Z,2.78
2022-08-18T09:44:21.493Z,1.98
2022-08-18T09:47:27.513Z,9.10
2022-08-18T09:50:27.516Z,2.50
2022-08-18T09:53:32.371Z,3.58
2022-08-18T09:56:54.166Z,5.45
2022-08-18T09:59:45.959Z,2.85
2022-08-18T10:02:37.180Z,3.55
2022-08-18T10:05:29.689Z,3.78
2022-08-18T10:08:28.721Z,3.78
2022-08-18T10:11:48.412Z,5.78
2022-08-18T10:15:26.965Z,4.53
2022-08-18T10:18:42.351Z,4.35
2022-08-18T10:21:58.497Z,3.70
2022-08-18T10:25:09.186Z,2.42
2022-08-18T10:28:31.307Z,3.03
2022-08-18T10:31:18.841Z,3.38
2022-08-18T10:34:17.026Z,4.60
2022-08-18T10:37:28.391Z,3.85
2022-08-18T10:40:23.309Z,3.38
2022-08-18T10:43:46.201Z,4.65
2022-08-18T10:46:28.536Z,2.28
2022-08-18T10:49:25.740Z,4.35
2022-08-18T10:52:33.893Z,2.78
2022-08-18T10:55:48.913Z,6.78
2022-08-18T10:58:57.760Z,5.28
2022-08-18T11:01:53.366Z,2.65
2022-08-18T11:04:47.361Z,4.55
2022-08-18T11:11:27.761Z,4.13
2022-08-18T11:14:23.731Z,6.05
2022-08-18T11:17:44.797Z,2.85
2022-08-18T11:20:33.530Z,2.20
2022-08-18T11:23:21.104Z,4.60
2022-08-18T11:26:18.166Z,2.63
2022-08-18T11:29:32.282Z,4.00
2022-08-18T11:32:24.093Z,1.83
2022-08-18T11:35:16.307Z,3.70
2022-08-18T11:38:13.574Z,3.42
2022-08-18T11:41:17.443Z,5.75
2022-08-18T11:44:14.235Z,2.63
2022-08-18T11:47:17.374Z,2.03
2022-08-18T11:50:12.030Z,2.47
2022-08-18T11:53:18.879Z,2.25
2022-08-18T11:56:30.671Z,3.13
2022-08-18T12:02:40.111Z,4.13
2022-08-18T12:05:27.729Z,3.55
2022-08-18T12:08:56.348Z,3.88
2022-08-18T12:11:49.077Z,2.65
2022-08-18T12:14:54.077Z,2.80
2022-08-18T12:17:52.252Z,2.20
2022-08-18T12:20:40.328Z,3.75
2022-08-18T12:23:39.038Z,3.70
2022-08-18T12:26:43.256Z,2.53
2022-08-18T12:29:43.586Z,1.85
2022-08-18T12:32:46.968Z,3.60
2022-08-18T12:35:37.689Z,3.38
2022-08-18T12:38:25.236Z,2.15
2022-08-18T12:51:02.537Z,1.77
2022-08-18T12:53:59.709Z,2.13
2022-08-18T12:56:53.952Z,2.40
2022-08-18T12:59:41.390Z,2.25
2022-08-18T13:02:29.446Z,2.33
2022-08-18T13:05:16.985Z,4.13
2022-08-18T13:08:27.558Z,4.15
2022-08-18T13:11:23.405Z,2.22
2022-08-18T13:14:12.639Z,1.55
2022-08-18T13:26:16.414Z,1.98
2022-08-18T13:29:04.196Z,4.65
2022-08-18T13:31:58.789Z,3.22
2022-08-18T13:34:46.299Z,2.22
2022-08-18T13:37:37.788Z,2.78
2022-08-18T13:40:29.363Z,3.90
2022-08-18T13:43:36.120Z,3.53
2022-08-18T13:46:30.917Z,4.85
2022-08-18T13:49:23.993Z,3.75
2022-08-18T13:52:33.436Z,3.00
2022-08-18T13:55:29.013Z,2.33
2022-08-18T13:58:20.783Z,1.60
2022-08-18T14:01:42.427Z,1.52
2022-08-18T14:04:21.039Z,2.33
2022-08-18T14:07:12.505Z,2.08
2022-08-18T14:10:08.106Z,4.10
2022-08-18T14:13:18.510Z,2.92
2022-08-18T14:16:08.037Z,2.58
2022-08-18T14:19:16.476Z,2.95
2022-08-18T14:22:24.306Z,2.78
2022-08-18T14:25:31.422Z,3.20
2022-08-18T14:28:19.599Z,4.32
2022-08-18T14:31:12.602Z,4.10
2022-08-18T14:34:04.123Z,2.65
2022-08-18T14:36:51.791Z,3.03
2022-08-18T14:39:40.716Z,2.67
2022-08-18T14:42:41.945Z,2.03
2022-08-18T14:45:47.521Z,3.33
2022-08-18T14:48:37.224Z,1.88
2022-08-18T14:51:28.969Z,1.50
2022-08-18T14:54:17.827Z,1.80
2022-08-18T14:57:05.592Z,3.13
2022-08-18T14:59:55.141Z,1.92
2022-08-18T15:02:46.681Z,1.38
2022-08-18T15:05:34.364Z,3.17
2022-08-18T15:08:22.950Z,2.13
2022-08-18T15:11:11.813Z,2.70
2022-08-18T15:14:00.718Z,2.83
2022-08-18T15:16:48.698Z,3.25
2022-08-18T15:19:59.661Z,2.92
2022-08-18T15:23:04.078Z,3.65
2022-08-18T15:25:52.010Z,1.33
2022-08-18T15:28:39.446Z,4.78
2022-08-18T15:34:46.392Z,2.90
2022-08-18T15:37:36.699Z,2.97
2022-08-18T15:40:35.622Z,5.63
2022-08-18T15:43:29.041Z,4.60
2022-08-18T15:46:18.936Z,2.63
2022-08-18T15:49:11.351Z,3.45
2022-08-18T15:52:02.289Z,3.33
2022-08-18T15:54:51.077Z,1.83
2022-08-18T15:57:40.290Z,2.53
2022-08-18T16:00:32.009Z,3.28
2022-08-18T16:03:21.151Z,6.22
2022-08-18T16:06:14.739Z,2.42
2022-08-18T16:09:07.965Z,4.85
2022-08-18T16:11:59.827Z,4.80
2022-08-18T16:14:48.029Z,5.22
2022-08-18T16:17:35.747Z,6.30
2022-08-18T16:20:24.272Z,5.80
2022-08-18T16:23:13.302Z,6.32
2022-08-18T16:26:02.625Z,2.67
2022-08-18T16:28:53.002Z,4.18
2022-08-18T16:31:41.079Z,5.40
2022-08-18T16:34:30.939Z,3.13
2022-08-18T16:37:19.521Z,6.20
2022-08-18T16:40:08.574Z,3.60
2022-08-18T16:42:56.182Z,5.47
2022-08-18T16:45:43.808Z,2.80
2022-08-18T16:48:32.832Z,5.03
2022-08-18T16:51:23.505Z,3.35
2022-08-18T16:54:11.033Z,3.88
2022-08-18T16:56:59.227Z,4.50
2022-08-18T17:00:25.142Z,3.20
2022-08-18T17:03:31.274Z,3.25
2022-08-18T17:06:20.325Z,3.60
2022-08-18T17:09:10.045Z,4.43
2022-08-18T17:11:57.901Z,2.72
2022-08-18T17:14:46.095Z,5.13
2022-08-18T17:17:35.406Z,3.95
2022-08-18T17:20:23.129Z,5.20
2022-08-18T17:23:14.652Z,4.20
2022-08-18T17:26:02.877Z,3.67
2022-08-18T17:28:54.460Z,4.97
2022-08-18T17:32:04.654Z,4.43
2022-08-18T17:35:05.030Z,4.15
2022-08-18T17:38:26.933Z,7.78
2022-08-18T17:41:17.428Z,7.28
2022-08-18T17:44:09.423Z,4.72
2022-08-18T17:46:58.556Z,5.30
2022-08-18T17:50:28.097Z,4.50
2022-08-18T17:53:14.395Z,5.22
2022-08-18T17:56:17.102Z,5.70
2022-08-18T17:59:42.827Z,4.22
2022-08-18T18:02:29.461Z,2.45
2022-08-18T18:05:20.575Z,5.28
2022-08-18T18:08:10.172Z,7.50
2022-08-18T18:11:10.752Z,4.07
2022-08-18T18:14:01.538Z,4.47
2022-08-18T18:17:01.524Z,3.08
2022-08-18T18:19:50.469Z,3.70
2022-08-18T18:22:38.679Z,4.68
2022-08-18T18:25:34.660Z,5.95
2022-08-18T18:28:35.857Z,5.32
2022-08-18T18:31:27.641Z,3.63
2022-08-18T18:34:39.304Z,7.93
2022-08-18T18:37:34.829Z,2.53
2022-08-18T18:40:28.615Z,2.90
2022-08-18T18:43:35.974Z,4.68
2022-08-18T18:46:31.344Z,4.75
2022-08-18T18:49:28.316Z,5.97
2022-08-18T18:52:25.325Z,2.95
2022-08-18T18:55:27.095Z,6.88
2022-08-18T18:58:35.304Z,5.75
2022-08-18T19:01:38.474Z,4.03
2022-08-18T19:04:32.704Z,5.10
2022-08-18T19:07:32.804Z,4.30
2022-08-18T19:10:51.438Z,5.45
2022-08-18T19:13:45.108Z,6.75
2022-08-18T19:16:52.128Z,3.25
2022-08-18T19:19:46.592Z,3.03
2022-08-18T19:22:44.471Z,4.63
2022-08-18T19:25:35.707Z,4.80
2022-08-18T19:29:13.378Z,4.65
2022-08-18T19:31:56.202Z,4.25
2022-08-18T19:34:51.457Z,5.82
2022-08-18T19:38:00.826Z,4.25
2022-08-18T19:41:00.276Z,3.97
2022-08-18T19:43:50.378Z,3.88
2022-08-18T19:46:39.542Z,4.32
2022-08-18T19:50:04.913Z,3.30
2022-08-18T19:53:14.509Z,4.88
2022-08-18T19:56:34.087Z,3.08
2022-08-18T19:59:35.053Z,5.38
2022-08-18T20:03:31.395Z,6.55
2022-08-18T20:06:52.185Z,4.85
2022-08-18T20:09:59.973Z,4.38
2022-08-18T20:13:05.796Z,5.28
2022-08-18T20:16:02.329Z,5.70
2022-08-18T20:18:51.952Z,3.55
2022-08-18T20:21:47.735Z,3.47
2022-08-18T20:24:48.903Z,6.75
2022-08-18T20:27:50.617Z,3.75
2022-08-18T20:31:02.499Z,6.38
2022-08-18T20:34:14.116Z,5.80
2022-08-18T20:37:10.859Z,5.40
2022-08-18T20:39:58.169Z,4.53
2022-08-18T20:42:47.718Z,6.63
2022-08-18T20:45:46.011Z,8.70
2022-08-18T20:49:07.747Z,7.07
2022-08-18T20:52:04.169Z,4.67
2022-08-18T20:55:15.895Z,6.50
2022-08-18T20:58:12.127Z,5.47
2022-08-18T21:01:01.457Z,7.70
2022-08-18T21:03:49.040Z,5.43
2022-08-18T21:06:44.515Z,6.17
2022-08-18T21:09:32.486Z,6.83
2022-08-18T21:12:22.650Z,6.17
2022-08-18T21:15:11.168Z,4.70
2022-08-18T21:18:00.998Z,18.90
2022-08-18T21:20:50.130Z,13.23
2022-08-18T21:24:13.986Z,14.90
2022-08-18T21:27:57.390Z,7.73
2022-08-18T21:36:17.615Z,8.47
2022-08-18T21:42:49.607Z,8.40
2022-08-18T21:46:23.416Z,7.33
2022-08-18T21:49:44.408Z,6.68
2022-08-18T21:56:40.508Z,6.70
2022-08-18T22:03:39.649Z,10.90
2022-08-18T22:07:24.976Z,8.17
2022-08-18T22:10:47.344Z,9.97
2022-08-18T22:18:20.520Z,11.63
2022-08-18T22:22:02.445Z,10.63
2022-08-18T22:25:10.629Z,6.83
2022-08-18T22:28:41.917Z,8.37
2022-08-18T22:31:49.462Z,9.30
2022-08-18T22:35:03.175Z,10.43
2022-08-18T22:38:12.877Z,7.37
2022-08-18T22:44:41.908Z,12.37
2022-08-18T22:47:43.383Z,6.03
2022-08-18T22:50:55.750Z,8.93
2022-08-18T22:54:06.127Z,9.93
2022-08-18T22:57:36.870Z,6.32
2022-08-18T23:12:19.918Z,6.97
2022-08-18T23:15:49.259Z,10.03
2022-08-18T23:19:23.252Z,10.23
2022-08-18T23:22:22.692Z,7.13
2022-08-18T23:26:08.839Z,8.43
2022-08-18T23:34:23.157Z,10.13
2022-08-18T23:37:10.809Z,9.03
2022-08-18T23:40:01.190Z,7.67
2022-08-18T23:42:56.527Z,11.10
2022-08-18T23:48:35.404Z,8.17
2022-08-18T23:51:36.924Z,7.17
2022-08-18T23:54:35.401Z,7.27
